sensor_id;sensor_type;location;lat;lon;timestamp;P1;durP1;ratioP1;P2;durP2;ratioP2
14592;SDS011;7383;52.354;9.756;2022-12-26T00:00:54;1.92;;;1.83;;
14592;SDS011;7383;52.354;9.756;2022-12-26T00:03:21;1.92;;;1.83;;
14592;SDS011;7383;52.354;9.756;2022-12-26T00:05:48;2.10;;;2.00;;
14592;SDS011;7383;52.354;9.756;2022-12-26T00:08:14;2.20;;;2.10;;
14592;SDS011;7383;52.354;9.756;2022-12-26T00:10:42;1.98;;;1.88;;
14592;SDS011;7383;52.354;9.756;2022-12-26T00:13:09;1.88;;;1.77;;
14592;SDS011;7383;52.354;9.756;2022-12-26T00:15:38;1.75;;;1.65;;
14592;SDS011;7383;52.354;9.756;2022-12-26T00:18:04;1.88;;;1.77;;
14592;SDS011;7383;52.354;9.756;2022-12-26T00:20:31;1.55;;;1.55;;
14592;SDS011;7383;52.354;9.756;2022-12-26T00:22:58;1.70;;;1.60;;
14592;SDS011;7383;52.354;9.756;2022-12-26T00:25:25;1.73;;;1.63;;
14592;SDS011;7383;52.354;9.756;2022-12-26T00:27:53;1.75;;;1.65;;
14592;SDS011;7383;52.354;9.756;2022-12-26T00:30:19;1.95;;;1.85;;
14592;SDS011;7383;52.354;9.756;2022-12-26T00:32:46;2.00;;;1.90;;
14592;SDS011;7383;52.354;9.756;2022-12-26T00:35:12;2.20;;;2.10;;
14592;SDS011;7383;52.354;9.756;2022-12-26T00:37:39;2.15;;;2.05;;
14592;SDS011;7383;52.354;9.756;2022-12-26T00:40:05;2.00;;;1.90;;
14592;SDS011;7383;52.354;9.756;2022-12-26T00:42:33;2.13;;;2.03;;
14592;SDS011;7383;52.354;9.756;2022-12-26T00:45:00;2.22;;;2.13;;
14592;SDS011;7383;52.354;9.756;2022-12-26T00:47:27;2.55;;;2.45;;
14592;SDS011;7383;52.354;9.756;2022-12-26T00:49:53;2.38;;;2.28;;
14592;SDS011;7383;52.354;9.756;2022-12-26T00:52:20;2.50;;;2.40;;
14592;SDS011;7383;52.354;9.756;2022-12-26T00:54:46;2.70;;;2.60;;
14592;SDS011;7383;52.354;9.756;2022-12-26T00:57:13;3.13;;;2.92;;
14592;SDS011;7383;52.354;9.756;2022-12-26T00:59:39;2.85;;;2.67;;
14592;SDS011;7383;52.354;9.756;2022-12-26T01:02:07;3.10;;;2.90;;
14592;SDS011;7383;52.354;9.756;2022-12-26T01:04:54;3.25;;;3.05;;
14592;SDS011;7383;52.354;9.756;2022-12-26T01:07:21;3.40;;;3.20;;
14592;SDS011;7383;52.354;9.756;2022-12-26T01:09:47;3.35;;;3.15;;
14592;SDS011;7383;52.354;9.756;2022-12-26T01:12:13;3.72;;;3.45;;
14592;SDS011;7383;52.354;9.756;2022-12-26T01:14:40;3.35;;;3.15;;
14592;SDS011;7383;52.354;9.756;2022-12-26T01:17:10;3.47;;;3.28;;
14592;SDS011;7383;52.354;9.756;2022-12-26T01:19:36;3.90;;;3.60;;
14592;SDS011;7383;52.354;9.756;2022-12-26T01:22:03;3.92;;;3.67;;
14592;SDS011;7383;52.354;9.756;2022-12-26T01:24:29;4.03;;;3.83;;
14592;SDS011;7383;52.354;9.756;2022-12-26T01:26:57;4.30;;;4.00;;
14592;SDS011;7383;52.354;9.756;2022-12-26T01:29:24;3.95;;;3.65;;
14592;SDS011;7383;52.354;9.756;2022-12-26T01:31:50;3.90;;;3.70;;
14592;SDS011;7383;52.354;9.756;2022-12-26T01:34:18;4.25;;;3.95;;
14592;SDS011;7383;52.354;9.756;2022-12-26T01:36:44;4.43;;;4.13;;
14592;SDS011;7383;52.354;9.756;2022-12-26T01:39:11;4.70;;;4.40;;
14592;SDS011;7383;52.354;9.756;2022-12-26T01:41:37;4.90;;;4.57;;
14592;SDS011;7383;52.354;9.756;2022-12-26T01:44:04;5.25;;;4.95;;
14592;SDS011;7383;52.354;9.756;2022-12-26T01:46:34;5.22;;;4.88;;
14592;SDS011;7383;52.354;9.756;2022-12-26T01:49:05;5.85;;;5.35;;
14592;SDS011;7383;52.354;9.756;2022-12-26T01:51:41;5.72;;;5.32;;
14592;SDS011;7383;52.354;9.756;2022-12-26T01:54:11;5.60;;;5.20;;
14592;SDS011;7383;52.354;9.756;2022-12-26T01:56:39;5.68;;;5.28;;
14592;SDS011;7383;52.354;9.756;2022-12-26T01:59:09;5.40;;;5.00;;
14592;SDS011;7383;52.354;9.756;2022-12-26T02:01:39;5.25;;;4.85;;
14592;SDS011;7383;52.354;9.756;2022-12-26T02:04:08;4.57;;;4.28;;
14592;SDS011;7383;52.354;9.756;2022-12-26T02:06:57;4.65;;;4.35;;
14592;SDS011;7383;52.354;9.756;2022-12-26T02:09:23;4.70;;;4.40;;
14592;SDS011;7383;52.354;9.756;2022-12-26T02:11:51;5.13;;;4.72;;
14592;SDS011;7383;52.354;9.756;2022-12-26T02:14:23;4.43;;;4.13;;
14592;SDS011;7383;52.354;9.756;2022-12-26T02:16:50;4.97;;;4.57;;
14592;SDS011;7383;52.354;9.756;2022-12-26T02:19:34;5.00;;;4.60;;
14592;SDS011;7383;52.354;9.756;2022-12-26T02:22:16;4.93;;;4.53;;
14592;SDS011;7383;52.354;9.756;2022-12-26T02:25:04;4.95;;;4.65;;
14592;SDS011;7383;52.354;9.756;2022-12-26T02:27:45;4.97;;;4.57;;
14592;SDS011;7383;52.354;9.756;2022-12-26T02:30:35;5.25;;;4.85;;
14592;SDS011;7383;52.354;9.756;2022-12-26T02:36:09;5.05;;;4.65;;
14592;SDS011;7383;52.354;9.756;2022-12-26T02:38:50;4.85;;;4.53;;
14592;SDS011;7383;52.354;9.756;2022-12-26T02:41:24;5.45;;;5.03;;
14592;SDS011;7383;52.354;9.756;2022-12-26T02:44:02;4.88;;;4.47;;
14592;SDS011;7383;52.354;9.756;2022-12-26T02:46:53;5.18;;;4.78;;
14592;SDS011;7383;52.354;9.756;2022-12-26T02:49:32;5.00;;;4.60;;
14592;SDS011;7383;52.354;9.756;2022-12-26T02:52:24;5.03;;;4.63;;
14592;SDS011;7383;52.354;9.756;2022-12-26T02:55:15;5.15;;;4.75;;
14592;SDS011;7383;52.354;9.756;2022-12-26T02:58:03;5.30;;;4.90;;
14592;SDS011;7383;52.354;9.756;2022-12-26T03:00:54;5.22;;;4.82;;
14592;SDS011;7383;52.354;9.756;2022-12-26T03:03:44;5.50;;;5.10;;
14592;SDS011;7383;52.354;9.756;2022-12-26T03:06:31;5.60;;;5.20;;
14592;SDS011;7383;52.354;9.756;2022-12-26T03:09:19;4.80;;;4.43;;
14592;SDS011;7383;52.354;9.756;2022-12-26T03:12:06;4.65;;;4.35;;
14592;SDS011;7383;52.354;9.756;2022-12-26T03:14:54;5.00;;;4.60;;
14592;SDS011;7383;52.354;9.756;2022-12-26T03:17:25;4.68;;;4.38;;
14592;SDS011;7383;52.354;9.756;2022-12-26T03:19:57;4.97;;;4.57;;
14592;SDS011;7383;52.354;9.756;2022-12-26T03:22:30;5.10;;;4.70;;
14592;SDS011;7383;52.354;9.756;2022-12-26T03:25:03;5.55;;;4.93;;
14592;SDS011;7383;52.354;9.756;2022-12-26T03:27:49;5.05;;;4.65;;
14592;SDS011;7383;52.354;9.756;2022-12-26T03:30:16;5.45;;;5.05;;
14592;SDS011;7383;52.354;9.756;2022-12-26T03:33:00;5.18;;;4.75;;
14592;SDS011;7383;52.354;9.756;2022-12-26T03:35:28;5.47;;;5.07;;
14592;SDS011;7383;52.354;9.756;2022-12-26T03:37:56;5.40;;;5.00;;
14592;SDS011;7383;52.354;9.756;2022-12-26T03:40:37;5.30;;;4.90;;
14592;SDS011;7383;52.354;9.756;2022-12-26T03:43:38;4.40;;;4.10;;
14592;SDS011;7383;52.354;9.756;2022-12-26T03:46:32;5.10;;;4.72;;
14592;SDS011;7383;52.354;9.756;2022-12-26T03:49:25;4.68;;;4.38;;
14592;SDS011;7383;52.354;9.756;2022-12-26T03:52:16;5.25;;;4.85;;
14592;SDS011;7383;52.354;9.756;2022-12-26T03:55:09;5.55;;;5.13;;
14592;SDS011;7383;52.354;9.756;2022-12-26T03:57:59;4.97;;;4.57;;
14592;SDS011;7383;52.354;9.756;2022-12-26T04:00:48;5.35;;;4.95;;
14592;SDS011;7383;52.354;9.756;2022-12-26T04:03:36;5.25;;;4.85;;
14592;SDS011;7383;52.354;9.756;2022-12-26T04:06:23;5.22;;;4.82;;
14592;SDS011;7383;52.354;9.756;2022-12-26T04:09:15;5.45;;;5.05;;
14592;SDS011;7383;52.354;9.756;2022-12-26T04:12:05;5.10;;;4.70;;
14592;SDS011;7383;52.354;9.756;2022-12-26T04:14:56;5.10;;;4.78;;
14592;SDS011;7383;52.354;9.756;2022-12-26T04:17:46;5.85;;;5.45;;
14592;SDS011;7383;52.354;9.756;2022-12-26T04:20:35;6.35;;;5.85;;
14592;SDS011;7383;52.354;9.756;2022-12-26T04:23:08;6.50;;;6.00;;
14592;SDS011;7383;52.354;9.756;2022-12-26T04:25:58;5.82;;;5.43;;
14592;SDS011;7383;52.354;9.756;2022-12-26T04:28:47;5.50;;;5.10;;
14592;SDS011;7383;52.354;9.756;2022-12-26T04:31:32;6.03;;;5.53;;
14592;SDS011;7383;52.354;9.756;2022-12-26T04:34:28;6.03;;;5.63;;
14592;SDS011;7383;52.354;9.756;2022-12-26T04:37:22;5.55;;;5.15;;
14592;SDS011;7383;52.354;9.756;2022-12-26T04:40:09;5.68;;;5.28;;
14592;SDS011;7383;52.354;9.756;2022-12-26T04:42:59;5.85;;;5.40;;
14592;SDS011;7383;52.354;9.756;2022-12-26T04:45:44;6.13;;;5.63;;
14592;SDS011;7383;52.354;9.756;2022-12-26T04:48:11;6.03;;;5.53;;
14592;SDS011;7383;52.354;9.756;2022-12-26T04:50:55;5.75;;;5.28;;
14592;SDS011;7383;52.354;9.756;2022-12-26T04:53:21;6.10;;;5.68;;
14592;SDS011;7383;52.354;9.756;2022-12-26T04:55:48;5.78;;;5.38;;
14592;SDS011;7383;52.354;9.756;2022-12-26T04:58:15;6.53;;;6.03;;
14592;SDS011;7383;52.354;9.756;2022-12-26T05:00:42;6.07;;;5.57;;
14592;SDS011;7383;52.354;9.756;2022-12-26T05:03:09;5.95;;;5.43;;
14592;SDS011;7383;52.354;9.756;2022-12-26T05:05:58;6.57;;;5.97;;
14592;SDS011;7383;52.354;9.756;2022-12-26T05:08:50;5.68;;;5.28;;
14592;SDS011;7383;52.354;9.756;2022-12-26T05:11:35;5.38;;;4.97;;
14592;SDS011;7383;52.354;9.756;2022-12-26T05:14:02;5.10;;;4.70;;
14592;SDS011;7383;52.354;9.756;2022-12-26T05:16:29;5.68;;;5.22;;
14592;SDS011;7383;52.354;9.756;2022-12-26T05:19:14;4.45;;;4.15;;
14592;SDS011;7383;52.354;9.756;2022-12-26T05:21:59;4.75;;;4.45;;
14592;SDS011;7383;52.354;9.756;2022-12-26T05:24:47;4.45;;;4.15;;
14592;SDS011;7383;52.354;9.756;2022-12-26T05:27:33;4.40;;;4.10;;
14592;SDS011;7383;52.354;9.756;2022-12-26T05:30:20;4.07;;;3.88;;
14592;SDS011;7383;52.354;9.756;2022-12-26T05:32:47;4.03;;;3.72;;
14592;SDS011;7383;52.354;9.756;2022-12-26T05:35:31;3.83;;;3.55;;
14592;SDS011;7383;52.354;9.756;2022-12-26T05:37:58;3.90;;;3.60;;
14592;SDS011;7383;52.354;9.756;2022-12-26T05:40:25;4.40;;;4.10;;
14592;SDS011;7383;52.354;9.756;2022-12-26T05:42:51;4.43;;;4.13;;
14592;SDS011;7383;52.354;9.756;2022-12-26T05:45:17;3.78;;;3.58;;
14592;SDS011;7383;52.354;9.756;2022-12-26T05:47:45;3.55;;;3.35;;
14592;SDS011;7383;52.354;9.756;2022-12-26T05:50:12;3.70;;;3.45;;
14592;SDS011;7383;52.354;9.756;2022-12-26T05:52:38;3.70;;;3.40;;
14592;SDS011;7383;52.354;9.756;2022-12-26T05:55:05;4.47;;;4.10;;
14592;SDS011;7383;52.354;9.756;2022-12-26T05:57:31;4.50;;;4.20;;
14592;SDS011;7383;52.354;9.756;2022-12-26T05:59:57;4.60;;;4.30;;
14592;SDS011;7383;52.354;9.756;2022-12-26T06:02:24;4.40;;;4.10;;
14592;SDS011;7383;52.354;9.756;2022-12-26T06:04:52;4.50;;;4.20;;
14592;SDS011;7383;52.354;9.756;2022-12-26T06:07:18;4.15;;;3.85;;
14592;SDS011;7383;52.354;9.756;2022-12-26T06:09:44;3.70;;;3.40;;
14592;SDS011;7383;52.354;9.756;2022-12-26T06:12:11;3.92;;;3.63;;
14592;SDS011;7383;52.354;9.756;2022-12-26T06:14:37;3.75;;;3.55;;
14592;SDS011;7383;52.354;9.756;2022-12-26T06:17:04;3.90;;;3.60;;
14592;SDS011;7383;52.354;9.756;2022-12-26T06:19:30;3.22;;;3.03;;
14592;SDS011;7383;52.354;9.756;2022-12-26T06:21:58;3.45;;;3.15;;
14592;SDS011;7383;52.354;9.756;2022-12-26T06:24:24;2.80;;;2.60;;
14592;SDS011;7383;52.354;9.756;2022-12-26T06:26:52;3.13;;;2.92;;
14592;SDS011;7383;52.354;9.756;2022-12-26T06:29:18;3.05;;;2.85;;
14592;SDS011;7383;52.354;9.756;2022-12-26T06:31:44;3.38;;;3.15;;
14592;SDS011;7383;52.354;9.756;2022-12-26T06:34:11;3.05;;;2.85;;
14592;SDS011;7383;52.354;9.756;2022-12-26T06:36:37;3.05;;;2.85;;
14592;SDS011;7383;52.354;9.756;2022-12-26T06:39:05;2.83;;;2.65;;
14592;SDS011;7383;52.354;9.756;2022-12-26T06:41:32;3.00;;;2.80;;
14592;SDS011;7383;52.354;9.756;2022-12-26T06:43:58;3.17;;;2.97;;
14592;SDS011;7383;52.354;9.756;2022-12-26T06:46:25;3.28;;;3.08;;
14592;SDS011;7383;52.354;9.756;2022-12-26T06:48:52;3.20;;;3.00;;
14592;SDS011;7383;52.354;9.756;2022-12-26T06:51:20;2.90;;;2.70;;
14592;SDS011;7383;52.354;9.756;2022-12-26T06:53:47;3.13;;;2.92;;
14592;SDS011;7383;52.354;9.756;2022-12-26T06:56:17;3.33;;;3.13;;
14592;SDS011;7383;52.354;9.756;2022-12-26T06:58:45;3.40;;;3.20;;
14592;SDS011;7383;52.354;9.756;2022-12-26T07:01:12;3.10;;;2.90;;
14592;SDS011;7383;52.354;9.756;2022-12-26T07:03:40;3.20;;;3.00;;
14592;SDS011;7383;52.354;9.756;2022-12-26T07:06:10;3.67;;;3.40;;
14592;SDS011;7383;52.354;9.756;2022-12-26T07:08:38;3.65;;;3.45;;
14592;SDS011;7383;52.354;9.756;2022-12-26T07:11:04;3.30;;;3.10;;
14592;SDS011;7383;52.354;9.756;2022-12-26T07:13:39;3.33;;;3.10;;
14592;SDS011;7383;52.354;9.756;2022-12-26T07:16:06;3.40;;;3.20;;
14592;SDS011;7383;52.354;9.756;2022-12-26T07:18:32;3.47;;;3.22;;
14592;SDS011;7383;52.354;9.756;2022-12-26T07:20:59;3.28;;;3.08;;
14592;SDS011;7383;52.354;9.756;2022-12-26T07:23:25;4.03;;;3.72;;
14592;SDS011;7383;52.354;9.756;2022-12-26T07:25:51;4.28;;;3.88;;
14592;SDS011;7383;52.354;9.756;2022-12-26T07:28:18;4.65;;;4.30;;
14592;SDS011;7383;52.354;9.756;2022-12-26T07:30:46;4.90;;;4.45;;
14592;SDS011;7383;52.354;9.756;2022-12-26T07:33:13;4.78;;;4.47;;
14592;SDS011;7383;52.354;9.756;2022-12-26T07:35:40;5.40;;;5.00;;
14592;SDS011;7383;52.354;9.756;2022-12-26T07:38:06;4.97;;;4.60;;
14592;SDS011;7383;52.354;9.756;2022-12-26T07:40:32;5.85;;;5.43;;
14592;SDS011;7383;52.354;9.756;2022-12-26T07:42:59;5.70;;;5.30;;
14592;SDS011;7383;52.354;9.756;2022-12-26T07:45:25;5.80;;;5.32;;
14592;SDS011;7383;52.354;9.756;2022-12-26T07:47:53;6.20;;;5.63;;
14592;SDS011;7383;52.354;9.756;2022-12-26T07:50:20;5.20;;;4.80;;
14592;SDS011;7383;52.354;9.756;2022-12-26T07:52:47;5.78;;;5.38;;
14592;SDS011;7383;52.354;9.756;2022-12-26T07:55:13;6.28;;;5.78;;
14592;SDS011;7383;52.354;9.756;2022-12-26T07:57:40;5.88;;;5.38;;
14592;SDS011;7383;52.354;9.756;2022-12-26T08:00:07;7.03;;;6.43;;
14592;SDS011;7383;52.354;9.756;2022-12-26T08:02:34;6.25;;;5.75;;
14592;SDS011;7383;52.354;9.756;2022-12-26T08:05:02;6.00;;;5.50;;
14592;SDS011;7383;52.354;9.756;2022-12-26T08:07:28;6.85;;;6.30;;
14592;SDS011;7383;52.354;9.756;2022-12-26T08:09:55;6.05;;;5.55;;
14592;SDS011;7383;52.354;9.756;2022-12-26T08:12:21;6.03;;;5.53;;
14592;SDS011;7383;52.354;9.756;2022-12-26T08:14:48;6.78;;;6.18;;
14592;SDS011;7383;52.354;9.756;2022-12-26T08:17:15;6.53;;;6.03;;
14592;SDS011;7383;52.354;9.756;2022-12-26T08:19:42;6.03;;;5.53;;
14592;SDS011;7383;52.354;9.756;2022-12-26T08:22:10;5.63;;;5.22;;
14592;SDS011;7383;52.354;9.756;2022-12-26T08:24:36;6.95;;;6.35;;
14592;SDS011;7383;52.354;9.756;2022-12-26T08:27:03;7.30;;;6.65;;
14592;SDS011;7383;52.354;9.756;2022-12-26T08:29:29;6.45;;;5.95;;
14592;SDS011;7383;52.354;9.756;2022-12-26T08:31:56;6.85;;;6.15;;
14592;SDS011;7383;52.354;9.756;2022-12-26T08:34:22;5.80;;;5.30;;
14592;SDS011;7383;52.354;9.756;2022-12-26T08:36:51;5.25;;;4.85;;
14592;SDS011;7383;52.354;9.756;2022-12-26T08:39:19;5.70;;;5.30;;
14592;SDS011;7383;52.354;9.756;2022-12-26T08:41:45;6.18;;;5.68;;
14592;SDS011;7383;52.354;9.756;2022-12-26T08:44:12;6.50;;;5.90;;
14592;SDS011;7383;52.354;9.756;2022-12-26T08:46:41;6.45;;;5.85;;
14592;SDS011;7383;52.354;9.756;2022-12-26T08:49:08;5.90;;;5.40;;
14592;SDS011;7383;52.354;9.756;2022-12-26T08:51:34;6.18;;;5.68;;
14592;SDS011;7383;52.354;9.756;2022-12-26T08:54:01;5.95;;;5.45;;
14592;SDS011;7383;52.354;9.756;2022-12-26T08:56:30;5.93;;;5.43;;
14592;SDS011;7383;52.354;9.756;2022-12-26T08:58:56;5.45;;;5.05;;
14592;SDS011;7383;52.354;9.756;2022-12-26T09:01:24;5.60;;;5.10;;
14592;SDS011;7383;52.354;9.756;2022-12-26T09:03:52;5.35;;;4.95;;
14592;SDS011;7383;52.354;9.756;2022-12-26T09:06:19;5.05;;;4.65;;
14592;SDS011;7383;52.354;9.756;2022-12-26T09:08:46;5.22;;;4.82;;
14592;SDS011;7383;52.354;9.756;2022-12-26T09:11:13;4.13;;;3.83;;
14592;SDS011;7383;52.354;9.756;2022-12-26T09:13:43;4.28;;;3.97;;
14592;SDS011;7383;52.354;9.756;2022-12-26T09:16:11;4.78;;;4.38;;
14592;SDS011;7383;52.354;9.756;2022-12-26T09:18:39;4.43;;;4.10;;
14592;SDS011;7383;52.354;9.756;2022-12-26T09:21:07;4.88;;;4.47;;
14592;SDS011;7383;52.354;9.756;2022-12-26T09:23:35;4.22;;;3.92;;
14592;SDS011;7383;52.354;9.756;2022-12-26T09:26:02;4.50;;;4.20;;
14592;SDS011;7383;52.354;9.756;2022-12-26T09:28:30;4.47;;;4.18;;
14592;SDS011;7383;52.354;9.756;2022-12-26T09:30:59;4.55;;;4.20;;
14592;SDS011;7383;52.354;9.756;2022-12-26T09:33:26;4.50;;;4.20;;
14592;SDS011;7383;52.354;9.756;2022-12-26T09:35:53;4.60;;;4.30;;
14592;SDS011;7383;52.354;9.756;2022-12-26T09:38:19;4.35;;;4.05;;
14592;SDS011;7383;52.354;9.756;2022-12-26T09:40:49;4.38;;;4.07;;
14592;SDS011;7383;52.354;9.756;2022-12-26T09:43:25;4.82;;;4.43;;
14592;SDS011;7383;52.354;9.756;2022-12-26T09:46:04;4.22;;;3.92;;
14592;SDS011;7383;52.354;9.756;2022-12-26T09:48:39;4.35;;;4.05;;
14592;SDS011;7383;52.354;9.756;2022-12-26T09:51:11;4.78;;;4.47;;
14592;SDS011;7383;52.354;9.756;2022-12-26T09:53:39;5.10;;;4.80;;
14592;SDS011;7383;52.354;9.756;2022-12-26T09:56:10;5.22;;;4.85;;
14592;SDS011;7383;52.354;9.756;2022-12-26T09:58:40;4.53;;;4.22;;
14592;SDS011;7383;52.354;9.756;2022-12-26T10:01:12;4.75;;;4.45;;
14592;SDS011;7383;52.354;9.756;2022-12-26T10:03:41;4.90;;;4.60;;
14592;SDS011;7383;52.354;9.756;2022-12-26T10:06:11;5.03;;;4.63;;
14592;SDS011;7383;52.354;9.756;2022-12-26T10:08:57;5.03;;;4.65;;
14592;SDS011;7383;52.354;9.756;2022-12-26T10:11:34;5.18;;;4.78;;
14592;SDS011;7383;52.354;9.756;2022-12-26T10:14:15;4.47;;;4.20;;
14592;SDS011;7383;52.354;9.756;2022-12-26T10:16:54;4.68;;;4.28;;
14592;SDS011;7383;52.354;9.756;2022-12-26T10:19:36;4.50;;;4.20;;
14592;SDS011;7383;52.354;9.756;2022-12-26T10:22:17;4.60;;;4.30;;
14592;SDS011;7383;52.354;9.756;2022-12-26T10:25:07;4.50;;;4.18;;
14592;SDS011;7383;52.354;9.756;2022-12-26T10:27:41;4.85;;;4.55;;
14592;SDS011;7383;52.354;9.756;2022-12-26T10:30:13;5.50;;;5.10;;
14592;SDS011;7383;52.354;9.756;2022-12-26T10:32:45;5.10;;;4.70;;
14592;SDS011;7383;52.354;9.756;2022-12-26T10:35:19;4.80;;;4.50;;
14592;SDS011;7383;52.354;9.756;2022-12-26T10:37:48;4.88;;;4.47;;
14592;SDS011;7383;52.354;9.756;2022-12-26T10:40:17;5.07;;;4.78;;
14592;SDS011;7383;52.354;9.756;2022-12-26T10:42:48;4.45;;;4.15;;
14592;SDS011;7383;52.354;9.756;2022-12-26T10:45:19;4.88;;;4.57;;
14592;SDS011;7383;52.354;9.756;2022-12-26T10:47:55;4.72;;;4.40;;
14592;SDS011;7383;52.354;9.756;2022-12-26T10:50:22;5.13;;;4.72;;
14592;SDS011;7383;52.354;9.756;2022-12-26T10:52:51;5.38;;;5.00;;
14592;SDS011;7383;52.354;9.756;2022-12-26T10:55:18;4.90;;;4.50;;
14592;SDS011;7383;52.354;9.756;2022-12-26T10:57:51;5.20;;;4.80;;
14592;SDS011;7383;52.354;9.756;2022-12-26T11:00:19;4.43;;;4.13;;
14592;SDS011;7383;52.354;9.756;2022-12-26T11:03:01;4.50;;;4.20;;
14592;SDS011;7383;52.354;9.756;2022-12-26T11:05:30;4.40;;;4.20;;
14592;SDS011;7383;52.354;9.756;2022-12-26T11:08:04;4.75;;;4.45;;
14592;SDS011;7383;52.354;9.756;2022-12-26T11:10:32;5.32;;;4.68;;
14592;SDS011;7383;52.354;9.756;2022-12-26T11:12:59;4.60;;;4.30;;
14592;SDS011;7383;52.354;9.756;2022-12-26T11:15:29;4.60;;;4.30;;
14592;SDS011;7383;52.354;9.756;2022-12-26T11:18:07;4.95;;;4.60;;
14592;SDS011;7383;52.354;9.756;2022-12-26T11:20:41;4.40;;;4.10;;
14592;SDS011;7383;52.354;9.756;2022-12-26T11:23:21;4.40;;;4.10;;
14592;SDS011;7383;52.354;9.756;2022-12-26T11:25:50;4.80;;;4.40;;
14592;SDS011;7383;52.354;9.756;2022-12-26T11:28:22;4.20;;;3.90;;
14592;SDS011;7383;52.354;9.756;2022-12-26T11:30:51;3.53;;;3.33;;
14592;SDS011;7383;52.354;9.756;2022-12-26T11:33:26;3.65;;;3.45;;
14592;SDS011;7383;52.354;9.756;2022-12-26T11:36:00;3.63;;;3.42;;
14592;SDS011;7383;52.354;9.756;2022-12-26T11:38:31;4.13;;;3.83;;
14592;SDS011;7383;52.354;9.756;2022-12-26T11:41:06;4.20;;;4.00;;
14592;SDS011;7383;52.354;9.756;2022-12-26T11:43:52;3.83;;;3.60;;
14592;SDS011;7383;52.354;9.756;2022-12-26T11:46:21;4.22;;;3.97;;
14592;SDS011;7383;52.354;9.756;2022-12-26T11:48:58;4.10;;;3.80;;
14592;SDS011;7383;52.354;9.756;2022-12-26T11:51:32;4.22;;;3.83;;
14592;SDS011;7383;52.354;9.756;2022-12-26T11:54:11;3.92;;;3.67;;
14592;SDS011;7383;52.354;9.756;2022-12-26T11:56:43;3.80;;;3.60;;
14592;SDS011;7383;52.354;9.756;2022-12-26T11:59:12;3.53;;;3.33;;
14592;SDS011;7383;52.354;9.756;2022-12-26T12:01:43;3.55;;;3.08;;
14592;SDS011;7383;52.354;9.756;2022-12-26T12:04:12;3.17;;;2.97;;
14592;SDS011;7383;52.354;9.756;2022-12-26T12:06:42;3.40;;;3.20;;
14592;SDS011;7383;52.354;9.756;2022-12-26T12:09:23;3.15;;;2.95;;
14592;SDS011;7383;52.354;9.756;2022-12-26T12:11:58;3.40;;;3.20;;
14592;SDS011;7383;52.354;9.756;2022-12-26T12:14:40;3.65;;;3.35;;
14592;SDS011;7383;52.354;9.756;2022-12-26T12:17:18;3.20;;;3.00;;
14592;SDS011;7383;52.354;9.756;2022-12-26T12:19:55;3.00;;;2.80;;
14592;SDS011;7383;52.354;9.756;2022-12-26T12:22:49;2.80;;;2.60;;
14592;SDS011;7383;52.354;9.756;2022-12-26T12:25:38;3.22;;;2.50;;
14592;SDS011;7383;52.354;9.756;2022-12-26T12:28:30;2.40;;;2.30;;
14592;SDS011;7383;52.354;9.756;2022-12-26T12:31:17;2.60;;;2.40;;
14592;SDS011;7383;52.354;9.756;2022-12-26T12:33:50;2.70;;;2.50;;
14592;SDS011;7383;52.354;9.756;2022-12-26T12:36:28;2.15;;;2.05;;
14592;SDS011;7383;52.354;9.756;2022-12-26T12:39:04;2.35;;;2.25;;
14592;SDS011;7383;52.354;9.756;2022-12-26T12:41:40;2.25;;;2.13;;
14592;SDS011;7383;52.354;9.756;2022-12-26T12:44:20;2.22;;;2.13;;
14592;SDS011;7383;52.354;9.756;2022-12-26T12:46:53;2.67;;;2.47;;
14592;SDS011;7383;52.354;9.756;2022-12-26T12:49:35;2.63;;;2.50;;
14592;SDS011;7383;52.354;9.756;2022-12-26T12:52:24;3.00;;;2.80;;
14592;SDS011;7383;52.354;9.756;2022-12-26T12:55:23;2.60;;;2.50;;
14592;SDS011;7383;52.354;9.756;2022-12-26T12:58:02;3.42;;;3.13;;
14592;SDS011;7383;52.354;9.756;2022-12-26T13:00:39;3.15;;;2.85;;
14592;SDS011;7383;52.354;9.756;2022-12-26T13:03:12;2.92;;;2.67;;
14592;SDS011;7383;52.354;9.756;2022-12-26T13:05:51;2.63;;;2.45;;
14592;SDS011;7383;52.354;9.756;2022-12-26T13:08:25;2.83;;;2.70;;
14592;SDS011;7383;52.354;9.756;2022-12-26T13:10:58;3.40;;;3.10;;
14592;SDS011;7383;52.354;9.756;2022-12-26T13:13:29;3.03;;;2.83;;
14592;SDS011;7383;52.354;9.756;2022-12-26T13:16:02;3.10;;;2.80;;
14592;SDS011;7383;52.354;9.756;2022-12-26T13:18:34;3.00;;;2.80;;
14592;SDS011;7383;52.354;9.756;2022-12-26T13:21:04;3.00;;;2.75;;
14592;SDS011;7383;52.354;9.756;2022-12-26T13:23:36;2.38;;;2.28;;
14592;SDS011;7383;52.354;9.756;2022-12-26T13:26:24;2.55;;;2.38;;
14592;SDS011;7383;52.354;9.756;2022-12-26T13:29:03;2.40;;;2.20;;
14592;SDS011;7383;52.354;9.756;2022-12-26T13:31:35;2.65;;;2.45;;
14592;SDS011;7383;52.354;9.756;2022-12-26T13:34:04;2.35;;;2.05;;
14592;SDS011;7383;52.354;9.756;2022-12-26T13:36:38;2.10;;;2.00;;
14592;SDS011;7383;52.354;9.756;2022-12-26T13:42:00;2.10;;;2.00;;
14592;SDS011;7383;52.354;9.756;2022-12-26T13:54:10;2.55;;;2.35;;
14592;SDS011;7383;52.354;9.756;2022-12-26T13:59:34;2.55;;;2.45;;
14592;SDS011;7383;52.354;9.756;2022-12-26T14:05:11;2.20;;;2.10;;
14592;SDS011;7383;52.354;9.756;2022-12-26T14:07:44;2.00;;;1.90;;
14592;SDS011;7383;52.354;9.756;2022-12-26T14:10:15;1.90;;;1.80;;
14592;SDS011;7383;52.354;9.756;2022-12-26T14:12:52;1.40;;;1.40;;
14592;SDS011;7383;52.354;9.756;2022-12-26T14:15:29;1.42;;;1.42;;
14592;SDS011;7383;52.354;9.756;2022-12-26T14:18:06;1.27;;;1.20;;
14592;SDS011;7383;52.354;9.756;2022-12-26T14:20:43;1.10;;;1.10;;
14592;SDS011;7383;52.354;9.756;2022-12-26T14:23:19;1.10;;;1.10;;
14592;SDS011;7383;52.354;9.756;2022-12-26T14:25:57;1.10;;;1.10;;
14592;SDS011;7383;52.354;9.756;2022-12-26T14:28:31;0.80;;;0.80;;
14592;SDS011;7383;52.354;9.756;2022-12-26T14:31:15;1.10;;;1.10;;
14592;SDS011;7383;52.354;9.756;2022-12-26T14:33:48;2.72;;;1.33;;
14592;SDS011;7383;52.354;9.756;2022-12-26T14:36:22;1.60;;;1.50;;
14592;SDS011;7383;52.354;9.756;2022-12-26T14:39:00;2.97;;;1.30;;
14592;SDS011;7383;52.354;9.756;2022-12-26T14:44:59;1.33;;;1.05;;
14592;SDS011;7383;52.354;9.756;2022-12-26T14:47:36;1.40;;;1.30;;
14592;SDS011;7383;52.354;9.756;2022-12-26T14:53:16;1.40;;;1.30;;
14592;SDS011;7383;52.354;9.756;2022-12-26T14:55:52;1.60;;;1.30;;
14592;SDS011;7383;52.354;9.756;2022-12-26T14:58:35;2.80;;;1.27;;
14592;SDS011;7383;52.354;9.756;2022-12-26T15:04:15;2.13;;;1.25;;
14592;SDS011;7383;52.354;9.756;2022-12-26T15:07:12;2.60;;;1.10;;
14592;SDS011;7383;52.354;9.756;2022-12-26T15:10:16;2.78;;;0.90;;
14592;SDS011;7383;52.354;9.756;2022-12-26T15:16:31;3.20;;;1.40;;
14592;SDS011;7383;52.354;9.756;2022-12-26T15:22:38;2.13;;;1.10;;
14592;SDS011;7383;52.354;9.756;2022-12-26T15:25:35;1.20;;;0.90;;
14592;SDS011;7383;52.354;9.756;2022-12-26T15:28:32;1.10;;;1.00;;
14592;SDS011;7383;52.354;9.756;2022-12-26T15:31:20;2.25;;;1.00;;
14592;SDS011;7383;52.354;9.756;2022-12-26T15:33:54;1.50;;;0.75;;
14592;SDS011;7383;52.354;9.756;2022-12-26T15:36:26;3.20;;;1.25;;
14592;SDS011;7383;52.354;9.756;2022-12-26T15:39:02;2.95;;;1.20;;
14592;SDS011;7383;52.354;9.756;2022-12-26T15:41:37;3.47;;;1.20;;
14592;SDS011;7383;52.354;9.756;2022-12-26T15:44:18;1.83;;;0.93;;
14592;SDS011;7383;52.354;9.756;2022-12-26T15:46:54;2.28;;;0.90;;
14592;SDS011;7383;52.354;9.756;2022-12-26T15:49:34;1.02;;;0.90;;
14592;SDS011;7383;52.354;9.756;2022-12-26T15:52:17;1.67;;;0.82;;
14592;SDS011;7383;52.354;9.756;2022-12-26T15:57:59;1.20;;;0.90;;
14592;SDS011;7383;52.354;9.756;2022-12-26T16:00:32;1.95;;;1.15;;
14592;SDS011;7383;52.354;9.756;2022-12-26T16:03:05;1.98;;;1.17;;
14592;SDS011;7383;52.354;9.756;2022-12-26T16:05:44;2.28;;;1.10;;
14592;SDS011;7383;52.354;9.756;2022-12-26T16:11:18;1.33;;;1.17;;
14592;SDS011;7383;52.354;9.756;2022-12-26T16:13:51;3.55;;;1.13;;
14592;SDS011;7383;52.354;9.756;2022-12-26T16:16:24;1.85;;;1.10;;
14592;SDS011;7383;52.354;9.756;2022-12-26T16:19:12;1.75;;;1.30;;
14592;SDS011;7383;52.354;9.756;2022-12-26T16:21:40;1.23;;;0.85;;
14592;SDS011;7383;52.354;9.756;2022-12-26T16:24:28;2.25;;;1.10;;